Hamburg, Pennsylvania
Current Conditions -  °F | °C
As of 3:54 PM on Tuesday 27 Jan 2015 (Local Time) from KRDG Reporting Station
Clear Clear  
Wind Chill: 19°   Ceiling: Unl
Heat Index: 30°   Visibility: 10mi
Dew Point: 13°   Wind: 16mph
Humidity: 49%   Direction: 320°NW
Pressure: 29.74"   Gusts: NA
Location:  40.56°N, 75.98°W
Report Text: KRDG 272054Z AUTO 32014KT 10SM CLR M01/M11 A2974 RMK AO2 SLP080 T10111106 55005
Loading
Personal Weather Stations






























Interactive Weather Map New forecast layout! Learn more

10-Day Weather Forecast

Advertisements
Track Severe Weather on mobile